createdAt,value
2017-08-06T00:01:05.732Z,3.60
2017-08-06T00:03:32.150Z,3.67
2017-08-06T00:05:58.560Z,3.63
2017-08-06T00:08:25.009Z,3.70
2017-08-06T00:10:51.432Z,2.90
2017-08-06T00:13:17.894Z,2.63
2017-08-06T00:15:44.330Z,2.00
2017-08-06T00:18:11.506Z,2.10
2017-08-06T00:20:37.968Z,2.43
2017-08-06T00:23:04.408Z,2.40
2017-08-06T00:25:30.833Z,2.40
2017-08-06T00:27:57.266Z,2.70
2017-08-06T00:30:23.702Z,2.50
2017-08-06T00:32:50.155Z,2.30
2017-08-06T00:35:16.618Z,2.40
2017-08-06T00:37:43.037Z,2.17
2017-08-06T00:40:09.452Z,2.50
2017-08-06T00:42:35.862Z,2.27
2017-08-06T00:45:02.308Z,2.30
2017-08-06T00:47:28.737Z,2.37
2017-08-06T00:49:55.160Z,1.47
2017-08-06T00:52:21.598Z,2.30
2017-08-06T00:54:48.005Z,1.90
2017-08-06T00:57:14.444Z,1.90
2017-08-06T00:59:40.887Z,2.17
2017-08-06T01:02:07.333Z,1.90
2017-08-06T01:04:33.754Z,1.47
2017-08-06T01:07:00.566Z,2.07
2017-08-06T01:09:27.129Z,1.90
2017-08-06T01:11:53.709Z,1.63
2017-08-06T01:14:20.282Z,2.00
2017-08-06T01:16:46.833Z,1.90
2017-08-06T01:19:13.372Z,1.93
2017-08-06T01:21:39.964Z,1.60
2017-08-06T01:24:06.490Z,1.97
2017-08-06T01:26:33.825Z,2.27
2017-08-06T01:29:00.363Z,1.57
2017-08-06T01:31:26.947Z,1.70
2017-08-06T01:33:53.519Z,1.70
2017-08-06T01:36:20.061Z,1.57
2017-08-06T01:38:46.621Z,1.80
2017-08-06T01:41:14.181Z,1.77
2017-08-06T01:43:41.808Z,1.70
2017-08-06T01:46:08.384Z,1.90
2017-08-06T01:48:34.989Z,1.50
2017-08-06T01:51:01.584Z,1.57
2017-08-06T01:53:28.215Z,1.80
2017-08-06T01:55:54.748Z,1.83
2017-08-06T01:58:21.351Z,1.60
2017-08-06T02:00:47.946Z,2.10
2017-08-06T02:03:14.491Z,1.60
2017-08-06T02:05:41.029Z,2.23
2017-08-06T02:08:08.622Z,1.70
2017-08-06T02:10:35.182Z,1.67
2017-08-06T02:13:01.722Z,2.07
2017-08-06T02:15:28.277Z,1.57
2017-08-06T02:17:54.851Z,2.10
2017-08-06T02:20:21.420Z,2.10
2017-08-06T02:22:47.986Z,2.00
2017-08-06T02:25:14.577Z,1.90
2017-08-06T02:27:43.046Z,1.93
2017-08-06T02:30:09.602Z,1.97
2017-08-06T02:32:36.128Z,1.80
2017-08-06T02:35:03.416Z,2.00
2017-08-06T02:37:29.996Z,2.10
2017-08-06T02:39:56.523Z,2.07
2017-08-06T02:42:23.102Z,2.17
2017-08-06T02:44:49.685Z,2.10
2017-08-06T02:47:16.254Z,1.90
2017-08-06T02:49:43.552Z,2.07
2017-08-06T02:52:10.102Z,1.80
2017-08-06T02:54:36.694Z,1.90
2017-08-06T02:57:03.240Z,2.00
2017-08-06T02:59:30.814Z,1.53
2017-08-06T03:01:57.349Z,1.90
2017-08-06T03:04:23.952Z,1.73
2017-08-06T03:06:50.539Z,2.20
2017-08-06T03:09:17.089Z,1.80
2017-08-06T03:11:43.625Z,2.30
2017-08-06T03:14:10.162Z,1.63
2017-08-06T03:16:36.719Z,1.83
2017-08-06T03:19:03.997Z,1.40
2017-08-06T03:21:30.517Z,1.60
2017-08-06T03:23:58.127Z,2.10
2017-08-06T03:26:24.666Z,1.67
2017-08-06T03:28:51.220Z,1.77
2017-08-06T03:31:17.787Z,1.70
2017-08-06T03:33:44.329Z,2.00
2017-08-06T03:36:10.872Z,1.70
2017-08-06T03:38:37.423Z,2.03
2017-08-06T03:41:03.981Z,1.70
2017-08-06T03:43:30.508Z,2.27
2017-08-06T03:45:57.070Z,1.77
2017-08-06T03:48:23.617Z,1.93
2017-08-06T03:50:50.213Z,2.00
2017-08-06T03:53:16.759Z,1.60
2017-08-06T03:55:43.356Z,2.27
2017-08-06T03:58:09.889Z,2.10
2017-08-06T04:00:36.441Z,1.83
2017-08-06T04:03:02.995Z,1.60
2017-08-06T04:05:29.559Z,2.23
2017-08-06T04:07:56.105Z,2.10
2017-08-06T04:10:22.645Z,2.73
2017-08-06T04:12:49.188Z,2.33
2017-08-06T04:15:15.757Z,2.17
2017-08-06T04:17:42.320Z,1.90
2017-08-06T04:20:08.921Z,1.80
2017-08-06T04:22:35.495Z,1.60
2017-08-06T04:25:02.109Z,1.67
2017-08-06T04:27:28.697Z,1.77
2017-08-06T04:29:55.276Z,2.00
2017-08-06T04:32:21.808Z,1.60
2017-08-06T04:34:48.376Z,2.03
2017-08-06T04:37:14.963Z,1.80
2017-08-06T04:39:41.510Z,2.10
2017-08-06T04:42:08.086Z,1.80
2017-08-06T04:44:34.630Z,1.90
2017-08-06T04:47:01.184Z,2.20
2017-08-06T04:49:27.748Z,1.70
2017-08-06T04:51:54.318Z,1.90
2017-08-06T04:54:21.938Z,2.30
2017-08-06T04:56:48.475Z,1.93
2017-08-06T04:59:15.070Z,1.70
2017-08-06T05:01:41.583Z,1.33
2017-08-06T05:04:08.148Z,2.30
2017-08-06T05:06:34.707Z,1.90
2017-08-06T05:09:01.236Z,2.10
2017-08-06T05:11:27.787Z,1.93
2017-08-06T05:13:54.314Z,1.63
2017-08-06T05:16:21.890Z,1.80
2017-08-06T05:18:48.426Z,1.80
2017-08-06T05:21:15.013Z,1.60
2017-08-06T05:23:41.596Z,1.30
2017-08-06T05:26:08.131Z,2.00
2017-08-06T05:28:34.669Z,1.70
2017-08-06T05:31:01.209Z,1.73
2017-08-06T05:33:27.775Z,2.07
2017-08-06T05:35:54.313Z,2.00
2017-08-06T05:38:20.936Z,1.63
2017-08-06T05:40:47.494Z,2.20
2017-08-06T05:43:14.043Z,1.97
2017-08-06T05:45:40.916Z,1.77
2017-08-06T05:48:07.658Z,1.77
2017-08-06T05:50:34.208Z,2.10
2017-08-06T05:53:00.744Z,1.67
2017-08-06T05:55:27.323Z,1.83
2017-08-06T05:57:54.617Z,1.87
2017-08-06T06:00:21.210Z,1.80
2017-08-06T06:02:49.039Z,2.13
2017-08-06T06:05:15.593Z,1.63
2017-08-06T06:07:42.126Z,2.07
2017-08-06T06:10:08.682Z,1.97
2017-08-06T06:12:35.235Z,2.23
2017-08-06T06:15:01.770Z,1.67
2017-08-06T06:17:28.368Z,3.03
2017-08-06T06:19:54.895Z,1.90
2017-08-06T06:22:21.489Z,1.43
2017-08-06T06:24:47.989Z,1.73
2017-08-06T06:27:14.555Z,2.10
2017-08-06T06:29:41.089Z,1.70
2017-08-06T06:32:07.658Z,1.93
2017-08-06T06:34:35.314Z,1.60
2017-08-06T06:37:01.854Z,1.60
2017-08-06T06:39:28.425Z,1.50
2017-08-06T06:41:54.989Z,1.80
2017-08-06T06:44:21.523Z,1.43
2017-08-06T06:46:48.065Z,1.87
2017-08-06T06:49:14.598Z,1.50
2017-08-06T06:51:41.168Z,1.47
2017-08-06T06:54:07.719Z,2.03
2017-08-06T06:56:34.298Z,1.80
2017-08-06T06:59:00.816Z,1.57
2017-08-06T07:01:28.111Z,1.50
2017-08-06T07:03:54.634Z,2.10
2017-08-06T07:06:21.163Z,1.90
2017-08-06T07:08:47.713Z,1.93
2017-08-06T07:11:14.286Z,1.70
2017-08-06T07:13:40.868Z,2.13
2017-08-06T07:16:07.387Z,1.80
2017-08-06T07:18:34.701Z,2.27
2017-08-06T07:21:01.226Z,2.40
2017-08-06T07:23:27.814Z,1.50
2017-08-06T07:25:55.105Z,2.13
2017-08-06T07:28:21.672Z,1.80
2017-08-06T07:30:48.192Z,2.20
2017-08-06T07:33:14.722Z,1.80
2017-08-06T07:35:41.267Z,2.17
2017-08-06T07:38:07.813Z,1.77
2017-08-06T07:40:34.377Z,2.40
2017-08-06T07:43:01.666Z,1.93
2017-08-06T07:45:28.251Z,1.90
2017-08-06T07:47:54.795Z,2.10
2017-08-06T07:50:22.062Z,1.43
2017-08-06T07:52:48.587Z,2.23
2017-08-06T07:55:15.902Z,2.00
2017-08-06T07:57:42.431Z,2.37
2017-08-06T08:00:08.967Z,2.30
2017-08-06T08:02:35.530Z,1.67
2017-08-06T08:05:02.794Z,1.77
2017-08-06T08:07:30.102Z,1.93
2017-08-06T08:09:56.653Z,1.80
2017-08-06T08:12:23.199Z,2.40
2017-08-06T08:14:49.744Z,1.80
2017-08-06T08:17:17.013Z,1.80
2017-08-06T08:19:43.595Z,1.47
2017-08-06T08:22:10.171Z,1.40
2017-08-06T08:24:37.489Z,1.80
2017-08-06T08:27:04.016Z,2.20
2017-08-06T08:29:31.586Z,2.30
2017-08-06T08:31:58.109Z,2.60
2017-08-06T08:34:24.644Z,1.70
2017-08-06T08:36:51.180Z,1.80
2017-08-06T08:39:17.718Z,2.10
2017-08-06T08:41:44.287Z,1.90
2017-08-06T08:44:11.570Z,1.80
2017-08-06T08:46:38.212Z,2.30
2017-08-06T08:49:04.749Z,2.10
2017-08-06T08:51:31.367Z,2.30
2017-08-06T08:53:58.903Z,1.90
2017-08-06T08:56:26.161Z,2.40
2017-08-06T08:58:53.422Z,1.87
2017-08-06T09:01:20.717Z,1.93
2017-08-06T09:03:47.320Z,2.30
2017-08-06T09:06:14.885Z,2.20
2017-08-06T09:08:41.443Z,2.60
2017-08-06T09:11:08.046Z,2.77
2017-08-06T09:13:34.596Z,2.30
2017-08-06T09:16:01.141Z,3.50
2017-08-06T09:18:27.675Z,2.57
2017-08-06T09:20:54.227Z,2.50
2017-08-06T09:23:20.784Z,2.13
2017-08-06T09:25:47.295Z,2.10
2017-08-06T09:28:13.924Z,2.60
2017-08-06T09:30:40.482Z,2.17
2017-08-06T09:33:07.034Z,2.30
2017-08-06T09:35:33.577Z,2.13
2017-08-06T09:38:00.127Z,1.90
2017-08-06T09:40:27.415Z,2.43
2017-08-06T09:42:53.967Z,1.93
2017-08-06T09:45:20.491Z,2.40
2017-08-06T09:47:47.035Z,2.70
2017-08-06T09:50:13.628Z,2.40
2017-08-06T09:52:40.908Z,2.73
2017-08-06T09:55:07.444Z,2.90
2017-08-06T09:57:33.982Z,2.50
2017-08-06T10:00:00.526Z,2.37
2017-08-06T10:02:27.082Z,2.30
2017-08-06T10:04:53.614Z,2.50
2017-08-06T10:07:20.173Z,3.13
2017-08-06T10:09:46.758Z,2.30
2017-08-06T10:12:13.299Z,3.20
2017-08-06T10:14:39.875Z,2.37
2017-08-06T10:17:06.413Z,3.00
2017-08-06T10:19:32.975Z,2.57
2017-08-06T10:21:59.533Z,2.10
2017-08-06T10:24:26.076Z,2.67
2017-08-06T10:26:52.604Z,2.73
2017-08-06T10:29:19.132Z,2.60
2017-08-06T10:31:45.678Z,2.93
2017-08-06T10:34:12.892Z,2.40
2017-08-06T10:36:39.582Z,2.87
2017-08-06T10:39:06.110Z,2.87
2017-08-06T10:41:33.084Z,2.60
2017-08-06T10:43:59.637Z,2.70
2017-08-06T10:46:27.989Z,2.70
2017-08-06T10:48:54.695Z,2.47
2017-08-06T10:51:21.234Z,3.03
2017-08-06T10:53:47.761Z,2.10
2017-08-06T10:56:14.302Z,2.20
2017-08-06T10:58:40.890Z,2.90
2017-08-06T11:01:07.448Z,2.43
2017-08-06T11:03:33.992Z,2.50
2017-08-06T11:06:00.508Z,2.90
2017-08-06T11:08:27.026Z,2.40
2017-08-06T11:10:54.921Z,2.40
2017-08-06T11:13:21.623Z,2.40
2017-08-06T11:15:48.259Z,2.10
2017-08-06T11:18:15.083Z,2.47
2017-08-06T11:20:41.673Z,2.50
2017-08-06T11:23:08.210Z,2.97
2017-08-06T11:25:34.720Z,2.57
2017-08-06T11:28:02.010Z,2.40
2017-08-06T11:30:28.561Z,2.50
2017-08-06T11:32:55.390Z,2.63
2017-08-06T11:35:21.960Z,2.93
2017-08-06T11:37:48.483Z,2.47
2017-08-06T11:40:15.038Z,3.20
2017-08-06T11:42:41.550Z,2.00
2017-08-06T11:45:08.122Z,2.90
2017-08-06T11:47:34.665Z,2.67
2017-08-06T11:50:01.990Z,2.70
2017-08-06T11:52:28.534Z,3.10
2017-08-06T11:54:55.114Z,3.10
2017-08-06T11:57:21.679Z,2.70
2017-08-06T11:59:48.227Z,3.00
2017-08-06T12:02:14.774Z,3.00
2017-08-06T12:04:41.297Z,3.10
2017-08-06T12:07:07.872Z,3.07
2017-08-06T12:09:34.399Z,3.00
2017-08-06T12:12:02.788Z,3.43
2017-08-06T12:14:30.083Z,3.20
2017-08-06T12:16:56.620Z,3.90
2017-08-06T12:19:24.249Z,4.53
2017-08-06T12:21:50.788Z,5.07
2017-08-06T12:24:17.352Z,4.90
2017-08-06T12:26:43.905Z,4.87
2017-08-06T12:29:10.478Z,4.90
2017-08-06T12:31:37.068Z,4.70
2017-08-06T12:34:03.758Z,4.73
2017-08-06T12:36:30.286Z,4.30
2017-08-06T12:38:56.868Z,4.00
2017-08-06T12:41:23.418Z,3.90
2017-08-06T12:43:49.968Z,4.50
2017-08-06T12:46:16.567Z,5.03
2017-08-06T12:48:43.091Z,4.63
2017-08-06T12:51:09.693Z,5.40
2017-08-06T12:53:36.970Z,4.63
2017-08-06T12:56:03.534Z,4.07
2017-08-06T12:58:30.052Z,4.90
2017-08-06T13:00:56.590Z,5.10
2017-08-06T13:03:23.160Z,4.90
2017-08-06T13:05:49.710Z,4.03
2017-08-06T13:08:17.338Z,4.73
2017-08-06T13:10:43.911Z,5.77
2017-08-06T13:13:10.447Z,4.50
2017-08-06T13:15:37.145Z,4.67
2017-08-06T13:18:03.778Z,4.80
2017-08-06T13:20:31.329Z,4.30
2017-08-06T13:22:57.866Z,4.97
2017-08-06T13:25:24.454Z,4.00
2017-08-06T13:27:50.988Z,6.03
2017-08-06T13:30:17.547Z,4.77
2017-08-06T13:32:44.103Z,4.00
2017-08-06T13:35:10.658Z,3.60
2017-08-06T13:37:37.237Z,3.87
2017-08-06T13:40:03.779Z,3.63
2017-08-06T13:42:30.366Z,3.90
2017-08-06T13:44:56.888Z,4.20
2017-08-06T13:47:23.433Z,3.50
2017-08-06T13:49:49.972Z,3.83
2017-08-06T13:52:16.580Z,3.40
2017-08-06T13:54:43.129Z,3.60
2017-08-06T13:57:09.677Z,3.43
2017-08-06T13:59:37.298Z,3.57
2017-08-06T14:02:03.833Z,3.03
2017-08-06T14:04:30.409Z,3.70
2017-08-06T14:06:56.962Z,3.77
2017-08-06T14:09:23.519Z,2.97
2017-08-06T14:11:50.814Z,3.70
2017-08-06T14:14:17.357Z,3.70
2017-08-06T14:16:44.923Z,2.93
2017-08-06T14:19:11.475Z,3.17
2017-08-06T14:21:38.056Z,3.00
2017-08-06T14:24:04.568Z,3.43
2017-08-06T14:26:31.841Z,3.70
2017-08-06T14:28:58.369Z,3.67
2017-08-06T14:31:24.927Z,3.40
2017-08-06T14:33:51.528Z,2.97
2017-08-06T14:36:18.839Z,3.40
2017-08-06T14:38:45.403Z,3.67
2017-08-06T14:41:13.105Z,3.43
2017-08-06T14:43:39.659Z,3.60
2017-08-06T14:46:06.219Z,4.20
2017-08-06T14:48:32.760Z,3.60
2017-08-06T14:50:59.310Z,3.57
2017-08-06T14:53:25.854Z,3.27
2017-08-06T14:55:55.596Z,3.23
2017-08-06T14:58:22.145Z,3.90
2017-08-06T15:00:49.074Z,3.73
2017-08-06T15:03:15.670Z,3.50
2017-08-06T15:05:42.206Z,4.30
2017-08-06T15:08:08.787Z,3.27
2017-08-06T15:10:35.335Z,3.60
2017-08-06T15:13:01.923Z,3.20
2017-08-06T15:15:29.188Z,3.30
2017-08-06T15:17:56.793Z,2.37
2017-08-06T15:20:23.327Z,3.10
2017-08-06T15:22:50.913Z,2.63
2017-08-06T15:25:19.264Z,2.60
2017-08-06T15:27:45.797Z,3.30
2017-08-06T15:30:12.383Z,2.77
2017-08-06T15:32:39.688Z,3.60
2017-08-06T15:35:07.248Z,3.13
2017-08-06T15:37:33.772Z,2.63
2017-08-06T15:40:00.314Z,3.33
2017-08-06T15:42:26.877Z,2.90
2017-08-06T15:44:53.412Z,2.73
2017-08-06T15:47:20.744Z,2.70
2017-08-06T15:49:47.290Z,3.27
2017-08-06T15:52:13.863Z,2.90
2017-08-06T15:54:41.160Z,2.63
2017-08-06T15:57:07.766Z,3.03
2017-08-06T15:59:34.328Z,2.73
2017-08-06T16:02:00.863Z,2.73
2017-08-06T16:04:27.432Z,3.20
2017-08-06T16:06:53.979Z,3.00
2017-08-06T16:09:22.308Z,2.40
2017-08-06T16:11:48.858Z,2.80
2017-08-06T16:14:15.422Z,2.87
2017-08-06T16:16:41.982Z,2.50
2017-08-06T16:19:08.528Z,2.97
2017-08-06T16:21:35.065Z,2.93
2017-08-06T16:24:01.617Z,3.40
2017-08-06T16:26:28.207Z,2.60
2017-08-06T16:28:55.497Z,2.67
2017-08-06T16:31:22.036Z,3.00
2017-08-06T16:33:48.597Z,2.60
2017-08-06T16:36:15.118Z,2.93
2017-08-06T16:38:41.694Z,3.30
2017-08-06T16:41:08.225Z,2.90
2017-08-06T16:43:34.756Z,3.30
2017-08-06T16:46:01.309Z,3.00
2017-08-06T16:48:28.639Z,3.30
2017-08-06T16:50:55.922Z,3.00
2017-08-06T16:53:22.514Z,3.00
2017-08-06T16:55:49.038Z,3.30
2017-08-06T16:58:15.580Z,3.60
2017-08-06T17:00:42.113Z,3.70
2017-08-06T17:03:08.658Z,4.00
2017-08-06T17:05:35.204Z,4.17
2017-08-06T17:08:05.621Z,2.60
2017-08-06T17:10:33.257Z,3.57
2017-08-06T17:12:59.807Z,3.23
2017-08-06T17:15:26.324Z,2.50
2017-08-06T17:17:52.912Z,2.53
2017-08-06T17:20:20.180Z,2.30
2017-08-06T17:22:46.715Z,2.67
2017-08-06T17:25:14.279Z,2.40
2017-08-06T17:27:40.863Z,2.83
2017-08-06T17:30:07.397Z,2.80
2017-08-06T17:32:35.039Z,3.00
2017-08-06T17:35:02.058Z,3.00
2017-08-06T17:37:28.875Z,3.00
2017-08-06T17:39:56.315Z,3.53
2017-08-06T17:42:22.865Z,3.00
2017-08-06T17:44:50.238Z,3.13
2017-08-06T17:47:16.792Z,4.10
2017-08-06T17:49:43.366Z,3.60
2017-08-06T17:52:09.936Z,3.23
2017-08-06T17:54:36.680Z,3.53
2017-08-06T17:57:03.198Z,3.60
2017-08-06T17:59:29.765Z,2.90
2017-08-06T18:01:56.924Z,3.20
2017-08-06T18:04:23.442Z,3.73
2017-08-06T18:06:50.044Z,3.67
2017-08-06T18:09:16.615Z,3.10
2017-08-06T18:11:43.166Z,3.67
2017-08-06T18:14:09.724Z,3.03
2017-08-06T18:16:36.267Z,3.50
2017-08-06T18:19:02.878Z,3.20
2017-08-06T18:21:29.453Z,3.57
2017-08-06T18:23:56.469Z,3.10
2017-08-06T18:26:23.022Z,3.43
2017-08-06T18:28:49.573Z,3.17
2017-08-06T18:31:17.173Z,3.70
2017-08-06T18:33:43.715Z,3.73
2017-08-06T18:36:10.318Z,3.77
2017-08-06T18:38:37.645Z,4.03
2017-08-06T18:41:04.226Z,3.90
2017-08-06T18:43:31.639Z,4.30
2017-08-06T18:45:59.270Z,3.47
2017-08-06T18:48:25.831Z,3.53
2017-08-06T18:50:52.364Z,4.10
2017-08-06T18:53:18.914Z,4.10
2017-08-06T18:55:45.470Z,4.00
2017-08-06T18:58:12.029Z,3.83
2017-08-06T19:00:38.560Z,5.00
2017-08-06T19:03:05.149Z,4.33
2017-08-06T19:05:31.694Z,4.60
2017-08-06T19:07:58.234Z,4.40
2017-08-06T19:10:24.765Z,4.57
2017-08-06T19:12:51.384Z,3.90
2017-08-06T19:15:18.044Z,4.50
2017-08-06T19:17:46.364Z,4.20
2017-08-06T19:20:12.894Z,4.13
2017-08-06T19:22:39.457Z,4.80
2017-08-06T19:25:06.036Z,3.90
2017-08-06T19:27:33.503Z,4.10
2017-08-06T19:30:00.864Z,4.37
2017-08-06T19:32:27.400Z,3.80
2017-08-06T19:34:54.021Z,4.40
2017-08-06T19:37:20.602Z,4.10
2017-08-06T19:39:47.206Z,4.07
2017-08-06T19:42:13.739Z,3.60
2017-08-06T19:44:40.433Z,4.27
2017-08-06T19:47:09.255Z,3.77
2017-08-06T19:49:37.018Z,3.77
2017-08-06T19:52:04.304Z,4.47
2017-08-06T19:54:30.931Z,3.57
2017-08-06T19:56:57.480Z,4.37
2017-08-06T19:59:24.360Z,4.43
2017-08-06T20:01:55.002Z,4.20
2017-08-06T20:04:21.552Z,4.40
2017-08-06T20:06:48.966Z,4.30
2017-08-06T20:09:15.535Z,5.33
2017-08-06T20:11:43.083Z,4.50
2017-08-06T20:14:09.972Z,5.20
2017-08-06T20:16:37.294Z,5.20
2017-08-06T20:19:04.108Z,5.43
2017-08-06T20:21:30.681Z,4.80
2017-08-06T20:23:58.259Z,4.80
2017-08-06T20:26:24.812Z,4.80
2017-08-06T20:28:51.374Z,4.50
2017-08-06T20:31:17.914Z,5.13
2017-08-06T20:33:44.462Z,4.33
2017-08-06T20:36:11.015Z,5.10
2017-08-06T20:38:37.601Z,5.30
2017-08-06T20:41:05.167Z,5.20
2017-08-06T20:43:31.731Z,4.97
2017-08-06T20:45:58.300Z,5.37
2017-08-06T20:48:24.913Z,5.70
2017-08-06T20:50:52.189Z,4.73
2017-08-06T20:53:18.796Z,5.30
2017-08-06T20:55:45.360Z,5.00
2017-08-06T20:58:11.939Z,4.47
2017-08-06T21:00:38.512Z,4.70
2017-08-06T21:03:05.819Z,5.53
2017-08-06T21:05:32.365Z,6.17
2017-08-06T21:07:58.894Z,4.90
2017-08-06T21:10:25.450Z,6.53
2017-08-06T21:12:51.997Z,7.33
2017-08-06T21:15:20.311Z,8.73
2017-08-06T21:17:46.859Z,7.87
2017-08-06T21:20:13.441Z,14.17
2017-08-06T21:22:40.015Z,8.10
2017-08-06T21:25:06.578Z,10.30
2017-08-06T21:27:34.141Z,9.80
2017-08-06T21:30:00.694Z,14.20
2017-08-06T21:32:27.240Z,14.57
2017-08-06T21:34:53.833Z,10.63
2017-08-06T21:37:20.387Z,12.03
2017-08-06T21:39:46.914Z,10.53
2017-08-06T21:42:13.443Z,8.73
2017-08-06T21:44:39.992Z,8.10
2017-08-06T21:47:07.598Z,8.50
2017-08-06T21:49:34.144Z,7.80
2017-08-06T21:52:00.723Z,7.47
2017-08-06T21:54:27.287Z,7.60
2017-08-06T21:56:53.863Z,9.13
2017-08-06T21:59:20.379Z,7.40
2017-08-06T22:01:46.951Z,6.80
2017-08-06T22:04:13.459Z,7.10
2017-08-06T22:06:40.054Z,7.00
2017-08-06T22:09:06.560Z,6.87
2017-08-06T22:11:34.203Z,7.07
2017-08-06T22:14:00.765Z,7.43
2017-08-06T22:16:27.341Z,7.63
2017-08-06T22:18:53.887Z,7.10
2017-08-06T22:21:20.438Z,7.73
2017-08-06T22:23:47.001Z,6.83
2017-08-06T22:26:13.514Z,8.40
2017-08-06T22:28:40.096Z,6.80
2017-08-06T22:31:06.648Z,6.90
2017-08-06T22:33:33.966Z,6.40
2017-08-06T22:36:00.508Z,6.30
2017-08-06T22:38:28.062Z,5.53
2017-08-06T22:40:54.637Z,6.77
2017-08-06T22:43:21.920Z,6.03
2017-08-06T22:45:48.476Z,7.20
2017-08-06T22:48:15.007Z,6.77
2017-08-06T22:50:41.559Z,5.80
2017-08-06T22:53:08.136Z,5.80
2017-08-06T22:55:34.724Z,5.20
2017-08-06T22:58:01.259Z,6.00
2017-08-06T23:00:27.813Z,5.97
2017-08-06T23:02:54.401Z,6.70
2017-08-06T23:05:21.075Z,6.23
2017-08-06T23:07:47.613Z,6.83
2017-08-06T23:10:14.177Z,6.43
2017-08-06T23:12:41.439Z,6.40
2017-08-06T23:15:08.027Z,5.77
2017-08-06T23:17:35.625Z,5.60
2017-08-06T23:20:02.212Z,6.10
2017-08-06T23:22:28.750Z,5.70
2017-08-06T23:24:55.802Z,5.77
2017-08-06T23:27:22.344Z,6.70
2017-08-06T23:29:48.946Z,5.90
2017-08-06T23:32:15.515Z,5.23
2017-08-06T23:34:42.048Z,5.00
2017-08-06T23:37:08.589Z,4.93
2017-08-06T23:39:35.109Z,5.20
2017-08-06T23:42:01.673Z,5.60
2017-08-06T23:44:28.240Z,6.37
2017-08-06T23:46:54.788Z,5.47
2017-08-06T23:49:22.393Z,6.10
2017-08-06T23:51:48.926Z,5.20
2017-08-06T23:54:15.479Z,6.30
2017-08-06T23:56:42.758Z,5.90
2017-08-06T23:59:09.302Z,5.23
